Time;durP1;ratioP1;P1;durP2;ratioP2;P2;SDS_P1;SDS_P2;PMS_P1;PMS_P2;Temp;Humidity;BMP_temperature;BMP_pressure;BME280_temperature;BME280_humidity;BME280_pressure;Samples;Min_cycle;Max_cycle;Signal;HPM_P1;HPM_P2
2023/08/08 00:01:44;;;;;;;14.07;2.47;;;;;;;;;;5002496;28;20056;-68
2023/08/08 00:04:10;;;;;;;10.63;2.35;;;;;;;;;;5004942;28;20061;-69
2023/08/08 00:06:37;;;;;;;16.52;3.33;;;;;;;;;;5002437;28;20053;-69
2023/08/08 00:09:04;;;;;;;13.18;2.28;;;;;;;;;;5002074;28;20061;-69
2023/08/08 00:11:30;;;;;;;13.52;2.50;;;;;;;;;;5001564;28;20144;-69
2023/08/08 00:13:57;;;;;;;15.82;2.58;;;;;;;;;;5001502;28;20053;-71
2023/08/08 00:16:23;;;;;;;12.10;2.47;;;;;;;;;;4999866;28;20045;-70
2023/08/08 00:18:52;;;;;;;14.52;3.20;;;;;;;;;;5002939;28;20049;-72
2023/08/08 00:21:17;;;;;;;15.88;2.67;;;;;;;;;;5002538;28;20144;-70
2023/08/08 00:23:43;;;;;;;13.52;2.60;;;;;;;;;;5004127;28;20041;-68
2023/08/08 00:26:09;;;;;;;15.15;2.67;;;;;;;;;;5002793;28;20052;-70
2023/08/08 00:28:36;;;;;;;12.88;2.47;;;;;;;;;;5002132;28;20050;-68
2023/08/08 00:31:01;;;;;;;14.55;2.60;;;;;;;;;;5001522;28;20518;-67
2023/08/08 00:33:28;;;;;;;15.55;2.97;;;;;;;;;;5004741;28;20061;-68
2023/08/08 00:35:54;;;;;;;15.13;2.28;;;;;;;;;;5004218;28;20056;-68
2023/08/08 00:38:20;;;;;;;15.00;2.80;;;;;;;;;;5002252;28;20053;-68
2023/08/08 00:40:46;;;;;;;15.20;2.50;;;;;;;;;;5006070;28;20557;-66
2023/08/08 00:43:12;;;;;;;11.82;2.70;;;;;;;;;;5005729;28;20079;-68
2023/08/08 00:45:40;;;;;;;8.23;2.33;;;;;;;;;;5007126;28;20046;-67
2023/08/08 00:48:06;;;;;;;13.38;2.42;;;;;;;;;;5001396;28;20061;-67
2023/08/08 00:50:32;;;;;;;15.55;2.25;;;;;;;;;;5007639;28;20079;-68
2023/08/08 00:52:58;;;;;;;13.25;3.10;;;;;;;;;;5005645;28;22692;-67
2023/08/08 00:55:24;;;;;;;12.90;2.90;;;;;;;;;;5005139;28;20045;-70
2023/08/08 00:57:50;;;;;;;9.73;2.40;;;;;;;;;;5001748;28;20284;-67
2023/08/08 01:00:16;;;;;;;11.93;2.75;;;;;;;;;;5005047;28;20107;-67
2023/08/08 01:02:42;;;;;;;12.48;2.60;;;;;;;;;;5001497;28;20503;-69
2023/08/08 01:05:08;;;;;;;13.68;2.40;;;;;;;;;;5003286;28;20053;-70
2023/08/08 01:07:57;;;;;;;17.45;2.53;;;;;;;;;;5001961;28;20267;-67
2023/08/08 01:10:31;;;;;;;16.05;2.85;;;;;;;;;;5001410;28;20057;-66
2023/08/08 01:13:03;;;;;;;14.45;2.45;;;;;;;;;;5001168;28;20058;-69
2023/08/08 01:15:35;;;;;;;11.70;2.38;;;;;;;;;;5003890;28;20459;-69
2023/08/08 01:18:05;;;;;;;15.40;2.95;;;;;;;;;;5003973;28;20053;-66
2023/08/08 01:20:33;;;;;;;13.85;2.47;;;;;;;;;;5004320;28;20053;-67
2023/08/08 01:22:59;;;;;;;13.05;2.75;;;;;;;;;;5002316;28;20057;-65
2023/08/08 01:25:24;;;;;;;14.05;2.33;;;;;;;;;;5004383;28;20064;-68
2023/08/08 01:27:51;;;;;;;15.32;3.17;;;;;;;;;;5007595;28;20053;-66
2023/08/08 01:30:16;;;;;;;13.30;2.20;;;;;;;;;;5005307;28;20487;-70
2023/08/08 01:32:42;;;;;;;18.92;2.63;;;;;;;;;;4998628;28;20054;-68
2023/08/08 01:35:09;;;;;;;15.70;2.80;;;;;;;;;;5003286;28;20052;-69
2023/08/08 01:37:49;;;;;;;14.68;2.63;;;;;;;;;;5002006;28;20136;-69
2023/08/08 01:40:18;;;;;;;16.70;3.10;;;;;;;;;;5003185;28;20049;-66
2023/08/08 01:42:46;;;;;;;13.00;2.40;;;;;;;;;;5001474;28;20064;-66
2023/08/08 01:45:12;;;;;;;12.43;2.70;;;;;;;;;;5004908;28;20539;-66
2023/08/08 01:47:38;;;;;;;14.75;2.45;;;;;;;;;;5001664;28;20049;-67
2023/08/08 01:50:05;;;;;;;15.02;2.53;;;;;;;;;;5003136;28;20419;-67
2023/08/08 01:52:31;;;;;;;15.57;2.85;;;;;;;;;;5001571;28;20053;-66
2023/08/08 01:54:57;;;;;;;19.77;3.58;;;;;;;;;;5003103;28;20056;-65
2023/08/08 01:57:23;;;;;;;16.48;3.17;;;;;;;;;;4999775;28;20061;-66
2023/08/08 01:59:49;;;;;;;12.82;2.40;;;;;;;;;;5002253;28;20695;-66
2023/08/08 02:02:17;;;;;;;11.63;2.63;;;;;;;;;;5000328;28;20110;-67
2023/08/08 02:04:43;;;;;;;14.60;2.53;;;;;;;;;;5002486;28;20053;-67
2023/08/08 02:07:09;;;;;;;16.38;2.90;;;;;;;;;;5001961;28;20065;-67
2023/08/08 02:09:35;;;;;;;17.98;3.30;;;;;;;;;;5002852;28;20045;-69
2023/08/08 02:12:01;;;;;;;11.90;2.83;;;;;;;;;;4999991;28;20474;-69
2023/08/08 02:14:27;;;;;;;17.17;2.92;;;;;;;;;;5003652;28;20054;-66
2023/08/08 02:16:53;;;;;;;18.15;2.80;;;;;;;;;;5000362;28;20049;-66
2023/08/08 02:19:19;;;;;;;14.10;2.38;;;;;;;;;;5004211;28;20512;-67
2023/08/08 02:21:45;;;;;;;11.07;2.30;;;;;;;;;;5005973;28;20356;-67
2023/08/08 02:24:11;;;;;;;11.90;3.03;;;;;;;;;;5006261;28;20046;-70
2023/08/08 02:26:37;;;;;;;21.02;2.85;;;;;;;;;;5007523;28;20048;-68
2023/08/08 02:29:03;;;;;;;15.98;3.13;;;;;;;;;;5008598;28;20599;-69
2023/08/08 02:31:29;;;;;;;14.98;2.70;;;;;;;;;;5002555;28;20056;-69
2023/08/08 02:33:55;;;;;;;13.07;2.85;;;;;;;;;;5006389;28;20057;-68
2023/08/08 02:36:21;;;;;;;16.58;2.83;;;;;;;;;;5004065;28;20048;-67
2023/08/08 02:38:47;;;;;;;10.40;2.70;;;;;;;;;;5005499;28;20037;-69
2023/08/08 02:41:13;;;;;;;15.27;2.33;;;;;;;;;;5006387;28;20058;-68
2023/08/08 02:43:39;;;;;;;11.68;2.67;;;;;;;;;;5003435;28;20636;-68
2023/08/08 02:46:05;;;;;;;13.20;2.70;;;;;;;;;;5006943;28;20046;-68
2023/08/08 02:48:31;;;;;;;11.10;2.45;;;;;;;;;;5001866;28;20687;-70
2023/08/08 02:50:57;;;;;;;14.00;3.05;;;;;;;;;;5007388;28;20053;-67
2023/08/08 02:53:23;;;;;;;13.00;2.50;;;;;;;;;;5006390;28;20657;-68
2023/08/08 02:55:49;;;;;;;13.30;2.97;;;;;;;;;;5002890;28;20054;-69
2023/08/08 02:58:14;;;;;;;11.88;2.58;;;;;;;;;;5002720;28;20419;-69
2023/08/08 03:00:40;;;;;;;11.95;2.65;;;;;;;;;;5005174;28;20060;-70
2023/08/08 03:03:06;;;;;;;12.50;3.17;;;;;;;;;;5003960;28;20273;-68
2023/08/08 03:05:32;;;;;;;15.38;2.83;;;;;;;;;;5004847;28;20257;-69
2023/08/08 03:07:58;;;;;;;14.15;2.90;;;;;;;;;;5007928;28;20058;-68
2023/08/08 03:10:25;;;;;;;15.35;3.03;;;;;;;;;;5007869;28;20132;-71
2023/08/08 03:12:51;;;;;;;19.02;3.42;;;;;;;;;;5007085;28;20463;-68
2023/08/08 03:15:17;;;;;;;11.77;2.72;;;;;;;;;;5004807;28;20608;-68
2023/08/08 03:17:43;;;;;;;15.82;3.15;;;;;;;;;;5005127;28;20048;-68
2023/08/08 03:20:10;;;;;;;11.30;2.65;;;;;;;;;;5003280;28;20108;-66
2023/08/08 03:22:37;;;;;;;13.70;2.80;;;;;;;;;;5005981;28;20061;-66
2023/08/08 03:25:04;;;;;;;16.20;3.22;;;;;;;;;;5005257;28;20053;-68
2023/08/08 03:27:30;;;;;;;18.40;3.58;;;;;;;;;;5003090;28;20486;-66
2023/08/08 03:29:56;;;;;;;12.30;3.00;;;;;;;;;;5004762;28;20067;-66
2023/08/08 03:32:22;;;;;;;12.45;2.70;;;;;;;;;;5002282;28;20806;-66
2023/08/08 03:34:48;;;;;;;19.27;3.40;;;;;;;;;;5001576;28;20111;-64
2023/08/08 03:37:14;;;;;;;13.43;3.28;;;;;;;;;;5002431;28;20053;-65
2023/08/08 03:39:41;;;;;;;14.68;2.90;;;;;;;;;;5005920;28;20045;-67
2023/08/08 03:42:07;;;;;;;17.05;3.17;;;;;;;;;;5003427;28;20531;-66
2023/08/08 03:44:33;;;;;;;14.52;2.75;;;;;;;;;;5004962;28;20450;-66
2023/08/08 03:46:58;;;;;;;18.65;2.95;;;;;;;;;;5002965;28;20072;-69
2023/08/08 03:49:25;;;;;;;13.93;2.97;;;;;;;;;;5004246;28;20132;-69
2023/08/08 03:51:51;;;;;;;14.75;3.20;;;;;;;;;;5004858;28;20060;-69
2023/08/08 03:54:18;;;;;;;16.33;3.28;;;;;;;;;;5002412;28;20049;-69
2023/08/08 03:56:44;;;;;;;13.57;2.63;;;;;;;;;;5005362;28;20058;-69
2023/08/08 03:59:10;;;;;;;9.50;2.35;;;;;;;;;;5004917;28;20206;-69
2023/08/08 04:01:37;;;;;;;10.88;3.05;;;;;;;;;;5003200;28;20057;-68
2023/08/08 04:04:04;;;;;;;10.73;2.72;;;;;;;;;;5006582;28;20705;-69
2023/08/08 04:06:30;;;;;;;12.05;2.80;;;;;;;;;;5001000;28;20057;-69
2023/08/08 04:08:56;;;;;;;10.80;2.75;;;;;;;;;;5008297;28;20045;-67
2023/08/08 04:11:21;;;;;;;15.88;2.95;;;;;;;;;;5002900;28;20041;-69
2023/08/08 04:13:48;;;;;;;15.80;2.80;;;;;;;;;;5006937;28;20091;-69
2023/08/08 04:16:14;;;;;;;13.10;2.88;;;;;;;;;;5000732;28;20415;-68
2023/08/08 04:18:40;;;;;;;12.38;3.10;;;;;;;;;;5002737;28;20050;-70
2023/08/08 04:21:05;;;;;;;17.70;2.88;;;;;;;;;;5004171;28;20068;-67
2023/08/08 04:23:32;;;;;;;13.90;3.15;;;;;;;;;;5004188;28;21288;-69
2023/08/08 04:25:58;;;;;;;16.92;3.20;;;;;;;;;;5002421;28;20041;-68
2023/08/08 04:28:24;;;;;;;14.10;3.00;;;;;;;;;;5003875;28;20049;-68
2023/08/08 04:30:49;;;;;;;8.85;2.67;;;;;;;;;;5003640;28;20062;-68
2023/08/08 04:33:15;;;;;;;10.65;2.75;;;;;;;;;;5002199;28;20396;-67
2023/08/08 04:35:41;;;;;;;15.85;2.72;;;;;;;;;;5005757;28;20736;-67
2023/08/08 04:38:07;;;;;;;11.43;2.63;;;;;;;;;;5002292;28;20173;-66
2023/08/08 04:40:33;;;;;;;14.80;3.05;;;;;;;;;;5003856;28;20423;-68
2023/08/08 04:42:59;;;;;;;18.92;3.50;;;;;;;;;;5000911;28;20376;-68
2023/08/08 04:45:27;;;;;;;13.65;2.35;;;;;;;;;;5001698;28;20158;-67
2023/08/08 04:47:53;;;;;;;12.20;2.90;;;;;;;;;;5004389;28;22132;-68
2023/08/08 04:50:19;;;;;;;15.40;2.90;;;;;;;;;;5004410;28;20053;-67
2023/08/08 04:52:45;;;;;;;12.18;2.80;;;;;;;;;;5001958;28;20066;-68
2023/08/08 04:55:11;;;;;;;12.02;2.40;;;;;;;;;;5003336;28;20120;-67
2023/08/08 04:57:37;;;;;;;16.67;2.80;;;;;;;;;;4999488;28;20108;-68
2023/08/08 05:00:05;;;;;;;11.98;3.00;;;;;;;;;;5000955;28;20049;-68
2023/08/08 05:02:31;;;;;;;10.70;2.20;;;;;;;;;;5003124;28;20079;-68
2023/08/08 05:04:57;;;;;;;7.68;2.28;;;;;;;;;;5003660;28;20511;-69
2023/08/08 05:07:23;;;;;;;17.42;2.88;;;;;;;;;;5002915;28;20435;-69
2023/08/08 05:09:49;;;;;;;12.82;2.45;;;;;;;;;;5006508;28;20499;-68
2023/08/08 05:12:15;;;;;;;10.30;2.50;;;;;;;;;;5021079;28;20454;-69
2023/08/08 05:14:41;;;;;;;12.38;2.55;;;;;;;;;;5004552;28;20065;-69
2023/08/08 05:17:07;;;;;;;11.20;2.47;;;;;;;;;;5002870;28;20103;-70
2023/08/08 05:19:33;;;;;;;9.95;2.70;;;;;;;;;;5001480;28;20487;-67
2023/08/08 05:22:00;;;;;;;10.38;2.63;;;;;;;;;;4999281;28;20038;-68
2023/08/08 05:24:27;;;;;;;10.98;2.83;;;;;;;;;;5001394;28;20053;-68
2023/08/08 05:26:53;;;;;;;10.73;2.53;;;;;;;;;;5001585;28;20048;-67
2023/08/08 05:29:19;;;;;;;10.40;2.80;;;;;;;;;;5001835;28;20065;-66
2023/08/08 05:31:47;;;;;;;9.98;2.67;;;;;;;;;;5006123;28;20544;-67
2023/08/08 05:34:13;;;;;;;7.50;2.03;;;;;;;;;;5001452;28;20054;-68
2023/08/08 05:36:39;;;;;;;7.93;2.22;;;;;;;;;;5001553;28;20049;-67
2023/08/08 05:39:06;;;;;;;15.23;3.22;;;;;;;;;;5002573;28;20426;-70
2023/08/08 05:41:33;;;;;;;11.00;2.90;;;;;;;;;;5003727;28;20056;-68
2023/08/08 05:43:59;;;;;;;16.08;3.05;;;;;;;;;;5002719;28;21735;-68
2023/08/08 05:46:25;;;;;;;15.98;2.80;;;;;;;;;;5002559;28;20054;-69
2023/08/08 05:48:51;;;;;;;13.93;2.72;;;;;;;;;;5001761;28;20656;-69
2023/08/08 05:51:17;;;;;;;13.63;3.03;;;;;;;;;;5008433;28;20158;-68
2023/08/08 05:53:42;;;;;;;12.10;2.72;;;;;;;;;;5006424;28;20049;-67
2023/08/08 05:56:09;;;;;;;12.98;2.67;;;;;;;;;;5006369;28;20049;-68
2023/08/08 05:58:36;;;;;;;15.90;2.40;;;;;;;;;;5007405;28;20057;-70
2023/08/08 06:01:06;;;;;;;13.77;2.63;;;;;;;;;;5008403;28;20046;-69
2023/08/08 06:03:32;;;;;;;13.32;2.20;;;;;;;;;;5004472;28;20054;-69
2023/08/08 06:05:58;;;;;;;13.82;2.60;;;;;;;;;;5006842;28;20936;-67
2023/08/08 06:08:24;;;;;;;12.93;2.63;;;;;;;;;;5005807;28;20114;-69
2023/08/08 06:10:50;;;;;;;12.57;2.55;;;;;;;;;;5005846;28;20518;-69
2023/08/08 06:13:15;;;;;;;13.23;2.67;;;;;;;;;;5010455;28;20045;-70
2023/08/08 06:15:42;;;;;;;9.32;2.30;;;;;;;;;;5007006;28;20147;-69
2023/08/08 06:18:07;;;;;;;11.60;2.40;;;;;;;;;;5005715;28;20064;-71
2023/08/08 06:20:33;;;;;;;11.07;2.83;;;;;;;;;;5007745;28;20061;-70
2023/08/08 06:22:59;;;;;;;10.70;2.50;;;;;;;;;;5008352;28;20423;-70
2023/08/08 06:25:25;;;;;;;14.02;3.13;;;;;;;;;;5004290;28;20057;-68
2023/08/08 06:27:51;;;;;;;11.55;2.75;;;;;;;;;;5005095;28;20137;-70
2023/08/08 06:30:17;;;;;;;12.05;2.85;;;;;;;;;;5007032;28;20058;-68
2023/08/08 06:32:43;;;;;;;9.35;2.40;;;;;;;;;;5005913;28;20080;-70
2023/08/08 06:35:09;;;;;;;12.00;3.03;;;;;;;;;;5007910;28;20116;-67
2023/08/08 06:37:35;;;;;;;11.10;2.70;;;;;;;;;;5005468;28;20050;-69
2023/08/08 06:40:01;;;;;;;13.07;2.97;;;;;;;;;;5008753;28;20064;-69
2023/08/08 06:42:27;;;;;;;14.15;2.90;;;;;;;;;;5003188;28;20049;-68
2023/08/08 06:44:53;;;;;;;15.10;3.30;;;;;;;;;;5005815;28;20050;-67
2023/08/08 06:47:19;;;;;;;19.80;3.58;;;;;;;;;;5004837;28;20495;-67
2023/08/08 06:49:45;;;;;;;14.15;2.95;;;;;;;;;;5005687;28;20057;-68
2023/08/08 06:52:11;;;;;;;14.32;2.83;;;;;;;;;;5007027;28;20452;-69
2023/08/08 06:54:37;;;;;;;15.95;3.08;;;;;;;;;;5005545;28;20073;-67
2023/08/08 06:57:04;;;;;;;13.40;3.40;;;;;;;;;;5005193;28;20156;-68
2023/08/08 06:59:30;;;;;;;17.55;3.70;;;;;;;;;;5006043;28;20415;-67
2023/08/08 07:01:56;;;;;;;28.17;3.97;;;;;;;;;;5007333;28;20045;-68
2023/08/08 07:04:22;;;;;;;15.18;3.28;;;;;;;;;;5008875;28;20064;-69
2023/08/08 07:06:48;;;;;;;17.15;3.63;;;;;;;;;;5004066;28;20053;-68
2023/08/08 07:09:14;;;;;;;12.60;3.33;;;;;;;;;;5005943;28;20065;-68
2023/08/08 07:11:40;;;;;;;12.15;3.45;;;;;;;;;;5008794;28;20646;-68
2023/08/08 07:14:06;;;;;;;13.98;3.08;;;;;;;;;;5007113;28;20045;-67
2023/08/08 07:16:33;;;;;;;11.52;2.90;;;;;;;;;;5004691;28;20088;-68
2023/08/08 07:19:00;;;;;;;10.13;2.97;;;;;;;;;;5007204;28;20053;-68
2023/08/08 07:21:26;;;;;;;11.45;2.92;;;;;;;;;;5002768;28;20144;-68
2023/08/08 07:23:52;;;;;;;12.13;3.05;;;;;;;;;;5007759;28;20983;-66
2023/08/08 07:26:18;;;;;;;11.73;2.65;;;;;;;;;;5004686;28;20111;-68
2023/08/08 07:28:44;;;;;;;20.25;3.05;;;;;;;;;;4998500;28;20069;-68
2023/08/08 07:31:10;;;;;;;22.83;3.60;;;;;;;;;;5004777;28;20064;-69
2023/08/08 07:33:36;;;;;;;22.35;2.97;;;;;;;;;;5004650;28;20137;-71
2023/08/08 07:36:02;;;;;;;14.90;2.90;;;;;;;;;;5005390;28;20057;-70
2023/08/08 07:38:28;;;;;;;22.48;4.03;;;;;;;;;;5003932;28;20063;-69
2023/08/08 07:40:54;;;;;;;18.15;2.90;;;;;;;;;;5005351;28;20045;-69
2023/08/08 07:43:20;;;;;;;21.25;3.60;;;;;;;;;;5003971;28;20495;-69
2023/08/08 07:45:46;;;;;;;17.80;3.33;;;;;;;;;;5005318;28;20060;-70
2023/08/08 07:48:52;;;;;;;21.58;3.50;;;;;;;;;;4998763;28;20057;-71
2023/08/08 07:52:32;;;;;;;14.82;3.65;;;;;;;;;;5003644;28;20049;-69
2023/08/08 07:56:13;;;;;;;13.77;3.25;;;;;;;;;;5004434;28;20077;-70
2023/08/08 07:59:53;;;;;;;18.63;3.90;;;;;;;;;;5004830;28;20550;-68
2023/08/08 08:03:33;;;;;;;16.02;3.55;;;;;;;;;;5003840;28;20258;-68
2023/08/08 08:07:14;;;;;;;15.30;3.55;;;;;;;;;;5003161;28;20120;-69
2023/08/08 08:10:54;;;;;;;13.77;3.60;;;;;;;;;;5005115;28;20495;-69
2023/08/08 08:14:34;;;;;;;23.08;3.58;;;;;;;;;;5006269;28;20049;-69
2023/08/08 08:18:17;;;;;;;18.92;3.60;;;;;;;;;;5001361;28;20144;-71
2023/08/08 08:21:56;;;;;;;14.95;3.40;;;;;;;;;;4995474;28;20380;-70
2023/08/08 08:25:36;;;;;;;15.45;3.50;;;;;;;;;;4999607;28;20075;-69
2023/08/08 08:29:17;;;;;;;14.10;4.18;;;;;;;;;;5003529;28;20057;-70
2023/08/08 08:32:57;;;;;;;22.42;4.30;;;;;;;;;;4999412;28;20144;-68
2023/08/08 08:36:37;;;;;;;16.95;3.55;;;;;;;;;;5001215;28;20072;-71
2023/08/08 08:40:18;;;;;;;13.98;3.28;;;;;;;;;;5002174;28;20077;-69
2023/08/08 08:43:58;;;;;;;17.88;4.05;;;;;;;;;;5000863;28;20141;-70
2023/08/08 08:47:38;;;;;;;17.85;3.67;;;;;;;;;;5000027;28;20614;-68
2023/08/08 08:51:19;;;;;;;21.67;3.83;;;;;;;;;;4998955;28;20045;-68
2023/08/08 08:55:00;;;;;;;14.70;3.58;;;;;;;;;;5002697;28;20081;-71
2023/08/08 08:58:41;;;;;;;16.45;3.33;;;;;;;;;;5000799;28;20491;-68
2023/08/08 09:02:21;;;;;;;10.40;3.28;;;;;;;;;;4998505;28;20162;-69
2023/08/08 09:06:01;;;;;;;12.90;3.95;;;;;;;;;;4999493;28;23013;-68
2023/08/08 09:09:41;;;;;;;22.98;3.90;;;;;;;;;;5001828;28;20670;-71
2023/08/08 09:13:22;;;;;;;11.63;3.83;;;;;;;;;;5000546;28;20049;-69
2023/08/08 09:17:02;;;;;;;20.38;4.03;;;;;;;;;;5002083;28;20140;-68
2023/08/08 09:20:42;;;;;;;13.43;3.50;;;;;;;;;;5001367;28;20056;-67
2023/08/08 09:24:23;;;;;;;17.83;3.60;;;;;;;;;;5000608;28;20156;-69
2023/08/08 09:28:04;;;;;;;17.25;3.28;;;;;;;;;;4997639;28;20045;-69
2023/08/08 09:31:44;;;;;;;17.08;3.60;;;;;;;;;;4991784;28;20084;-67
2023/08/08 09:35:25;;;;;;;13.13;3.83;;;;;;;;;;4996366;28;20049;-71
2023/08/08 09:39:05;;;;;;;16.90;3.90;;;;;;;;;;4995547;28;20115;-68
2023/08/08 09:42:45;;;;;;;14.85;3.47;;;;;;;;;;4997929;28;20061;-70
2023/08/08 09:46:26;;;;;;;13.20;3.40;;;;;;;;;;5001309;28;20134;-67
2023/08/08 09:50:06;;;;;;;14.40;3.40;;;;;;;;;;4997643;28;20103;-69
2023/08/08 09:53:47;;;;;;;21.52;3.95;;;;;;;;;;4998717;28;20056;-67
2023/08/08 09:57:26;;;;;;;15.55;3.65;;;;;;;;;;4996362;28;20054;-68
2023/08/08 10:01:07;;;;;;;26.48;3.85;;;;;;;;;;4998218;28;20053;-69
2023/08/08 10:04:49;;;;;;;16.60;3.88;;;;;;;;;;5000266;28;20072;-69
2023/08/08 10:08:29;;;;;;;18.73;4.18;;;;;;;;;;4996274;28;20049;-71
2023/08/08 10:12:09;;;;;;;17.58;3.42;;;;;;;;;;5001948;28;20053;-69
2023/08/08 10:15:50;;;;;;;16.48;3.90;;;;;;;;;;5001369;28;20045;-69
2023/08/08 10:19:30;;;;;;;13.02;3.22;;;;;;;;;;4999539;28;20618;-70
2023/08/08 10:23:10;;;;;;;15.38;2.85;;;;;;;;;;4997873;28;20050;-71
2023/08/08 10:27:12;;;;;;;13.45;2.80;;;;;;;;;;4997640;28;20873;-68
2023/08/08 10:30:45;;;;;;;11.77;2.72;;;;;;;;;;4998260;28;20422;-70
2023/08/08 10:34:25;;;;;;;15.55;2.95;;;;;;;;;;4994949;28;20081;-67
2023/08/08 10:38:11;;;;;;;16.17;2.92;;;;;;;;;;4994103;28;20251;-69
2023/08/08 10:41:31;;;;;;;;;;;;;;;;;;4998184;28;20084;-68
2023/08/08 10:45:13;;;;;;;13.88;2.97;;;;;;;;;;5002453;28;19932;-69
2023/08/08 10:48:52;;;;;;;13.93;2.83;;;;;;;;;;5001551;28;20111;-68
2023/08/08 10:52:35;;;;;;;14.35;2.78;;;;;;;;;;4999852;28;20053;-70
2023/08/08 10:56:16;;;;;;;14.48;3.35;;;;;;;;;;5004282;28;20045;-69
2023/08/08 10:59:56;;;;;;;15.32;3.10;;;;;;;;;;5000718;28;20171;-70
2023/08/08 11:03:39;;;;;;;12.63;2.75;;;;;;;;;;4998839;28;20128;-66
2023/08/08 11:07:18;;;;;;;11.15;2.58;;;;;;;;;;5001130;28;20203;-67
2023/08/08 11:10:59;;;;;;;11.45;2.63;;;;;;;;;;5010277;28;20084;-67
2023/08/08 11:13:59;;;;;;;11.13;2.55;;;;;;;;;;4999521;28;20061;-69
2023/08/08 11:16:25;;;;;;;12.90;2.50;;;;;;;;;;5002742;28;20080;-68
2023/08/08 11:18:55;;;;;;;10.13;2.08;;;;;;;;;;5001815;28;20104;-68
2023/08/08 11:21:23;;;;;;;15.00;3.00;;;;;;;;;;5001023;28;20292;-71
2023/08/08 11:23:49;;;;;;;9.85;2.55;;;;;;;;;;5001942;28;20068;-68
2023/08/08 11:26:18;;;;;;;11.98;2.50;;;;;;;;;;5000542;28;20049;-71
2023/08/08 11:28:51;;;;;;;9.52;2.45;;;;;;;;;;4999291;28;20137;-67
2023/08/08 11:31:20;;;;;;;10.15;2.70;;;;;;;;;;5000688;28;20813;-72
2023/08/08 11:33:47;;;;;;;18.02;3.97;;;;;;;;;;5002477;28;20461;-70
2023/08/08 11:36:15;;;;;;;14.18;2.92;;;;;;;;;;5000755;28;20050;-70
2023/08/08 11:38:43;;;;;;;16.90;2.78;;;;;;;;;;5002456;28;20172;-68
2023/08/08 11:41:22;;;;;;;13.80;3.30;;;;;;;;;;5003970;28;20054;-67
2023/08/08 11:43:48;;;;;;;16.60;4.05;;;;;;;;;;5002910;28;20064;-67
2023/08/08 11:46:15;;;;;;;13.75;3.53;;;;;;;;;;5002973;28;20080;-67
2023/08/08 11:48:41;;;;;;;10.57;3.17;;;;;;;;;;5000671;28;20060;-70
2023/08/08 11:51:09;;;;;;;15.10;3.67;;;;;;;;;;4999524;28;20053;-67
2023/08/08 11:53:36;;;;;;;15.38;3.25;;;;;;;;;;5004918;28;20058;-68
2023/08/08 11:56:03;;;;;;;11.90;3.03;;;;;;;;;;5003368;28;20080;-69
2023/08/08 11:58:32;;;;;;;9.57;2.55;;;;;;;;;;5000493;28;20903;-66
2023/08/08 12:00:59;;;;;;;19.08;2.85;;;;;;;;;;5001960;28;20068;-69
2023/08/08 12:03:28;;;;;;;13.98;3.20;;;;;;;;;;5018737;28;20049;-67
2023/08/08 12:05:54;;;;;;;17.50;3.15;;;;;;;;;;5000354;28;20046;-66
2023/08/08 12:08:21;;;;;;;12.40;3.22;;;;;;;;;;4999910;28;20048;-68
2023/08/08 12:10:51;;;;;;;7.22;2.40;;;;;;;;;;5009124;28;20123;-69
2023/08/08 12:13:23;;;;;;;12.25;2.63;;;;;;;;;;4999402;28;20053;-66
2023/08/08 12:15:50;;;;;;;12.00;2.70;;;;;;;;;;5003484;28;20057;-69
2023/08/08 12:18:20;;;;;;;16.02;2.80;;;;;;;;;;5002024;28;20502;-68
2023/08/08 12:20:46;;;;;;;12.68;2.85;;;;;;;;;;4999392;28;20478;-70
2023/08/08 12:23:14;;;;;;;11.73;2.55;;;;;;;;;;5004184;28;20053;-69
2023/08/08 12:25:42;;;;;;;10.93;2.78;;;;;;;;;;5000023;28;20068;-68
2023/08/08 12:28:10;;;;;;;16.75;2.78;;;;;;;;;;5004406;28;20418;-70
2023/08/08 12:30:36;;;;;;;11.95;2.30;;;;;;;;;;4998459;28;20056;-69
2023/08/08 12:33:01;;;;;;;9.45;2.28;;;;;;;;;;5000055;28;20829;-68
2023/08/08 12:35:28;;;;;;;12.60;2.22;;;;;;;;;;5001906;28;20061;-72
2023/08/08 12:38:33;;;;;;;12.95;2.50;;;;;;;;;;4999305;28;20058;-70
2023/08/08 12:42:13;;;;;;;10.80;2.78;;;;;;;;;;5001360;28;20076;-70
2023/08/08 12:45:54;;;;;;;12.32;2.78;;;;;;;;;;4998048;28;20053;-70
2023/08/08 12:49:34;;;;;;;10.70;2.90;;;;;;;;;;5000694;28;20045;-69
2023/08/08 12:53:15;;;;;;;11.93;3.00;;;;;;;;;;4997005;28;20045;-70
2023/08/08 12:56:55;;;;;;;11.80;2.28;;;;;;;;;;4998435;28;20123;-69
2023/08/08 13:00:35;;;;;;;14.45;2.65;;;;;;;;;;5001684;28;20099;-68
2023/08/08 13:04:15;;;;;;;11.80;2.63;;;;;;;;;;4997191;28;20041;-73
2023/08/08 13:07:56;;;;;;;11.63;2.42;;;;;;;;;;4996901;28;20045;-72
2023/08/08 13:11:36;;;;;;;14.77;2.75;;;;;;;;;;5000401;28;20057;-70
2023/08/08 13:15:15;;;;;;;10.40;2.45;;;;;;;;;;4998199;28;20512;-70
2023/08/08 13:18:20;;;;;;;11.52;2.10;;;;;;;;;;4983964;28;20046;-69
2023/08/08 13:22:01;;;;;;;11.90;2.63;;;;;;;;;;5003181;28;20286;-71
2023/08/08 13:25:41;;;;;;;10.90;2.38;;;;;;;;;;5004467;28;20055;-71
2023/08/08 13:29:22;;;;;;;8.00;2.00;;;;;;;;;;5001861;28;20061;-70
2023/08/08 13:33:03;;;;;;;12.80;2.50;;;;;;;;;;5002939;28;20056;-69
2023/08/08 13:36:43;;;;;;;11.25;2.35;;;;;;;;;;5002378;28;20049;-69
2023/08/08 13:40:23;;;;;;;16.92;2.78;;;;;;;;;;5002185;28;20105;-69
2023/08/08 13:44:04;;;;;;;14.77;2.80;;;;;;;;;;5002743;28;20619;-70
2023/08/08 13:47:45;;;;;;;8.95;2.33;;;;;;;;;;4997188;28;20478;-69
2023/08/08 13:51:24;;;;;;;10.65;2.50;;;;;;;;;;5000041;28;20056;-68
2023/08/08 13:55:05;;;;;;;8.00;2.38;;;;;;;;;;4999120;28;20053;-69
2023/08/08 13:58:45;;;;;;;8.70;2.22;;;;;;;;;;4994132;28;20071;-71
2023/08/08 14:02:27;;;;;;;10.45;2.53;;;;;;;;;;5002906;28;20120;-71
2023/08/08 14:06:07;;;;;;;12.93;2.83;;;;;;;;;;4998881;28;20049;-69
2023/08/08 14:09:47;;;;;;;15.38;2.78;;;;;;;;;;4999231;28;20423;-70
2023/08/08 14:13:28;;;;;;;11.32;2.50;;;;;;;;;;5002040;28;20055;-68
2023/08/08 14:17:08;;;;;;;12.30;2.33;;;;;;;;;;5004135;28;20049;-72
2023/08/08 14:20:48;;;;;;;12.07;2.30;;;;;;;;;;5003508;28;20527;-70
2023/08/08 14:24:29;;;;;;;9.05;2.28;;;;;;;;;;5004807;28;20045;-74
2023/08/08 14:28:10;;;;;;;10.82;2.38;;;;;;;;;;5006450;28;20368;-69
2023/08/08 14:31:50;;;;;;;9.55;2.08;;;;;;;;;;5005785;28;20419;-71
2023/08/08 14:35:30;;;;;;;9.98;2.45;;;;;;;;;;5008403;28;20048;-70
2023/08/08 14:39:11;;;;;;;7.43;2.20;;;;;;;;;;5003543;28;20976;-71
2023/08/08 14:42:51;;;;;;;13.25;2.55;;;;;;;;;;5005078;28;20049;-72
2023/08/08 14:46:33;;;;;;;13.73;2.40;;;;;;;;;;5005558;28;20140;-70
2023/08/08 14:50:12;;;;;;;12.93;2.45;;;;;;;;;;5007370;28;20040;-69
2023/08/08 14:53:52;;;;;;;13.10;2.58;;;;;;;;;;5006606;28;20064;-70
2023/08/08 14:57:33;;;;;;;7.95;2.10;;;;;;;;;;5005931;28;20516;-73
2023/08/08 15:01:13;;;;;;;10.00;2.25;;;;;;;;;;5008821;28;20127;-69
2023/08/08 15:04:54;;;;;;;9.38;2.30;;;;;;;;;;5002967;28;20046;-70
2023/08/08 15:08:35;;;;;;;15.38;2.42;;;;;;;;;;5004947;28;22550;-69
2023/08/08 15:12:16;;;;;;;10.68;2.63;;;;;;;;;;5006834;28;20053;-71
2023/08/08 15:15:55;;;;;;;8.90;2.60;;;;;;;;;;5007260;28;20453;-71
2023/08/08 15:19:37;;;;;;;14.07;2.55;;;;;;;;;;5005821;28;20077;-68
2023/08/08 15:23:16;;;;;;;15.02;2.03;;;;;;;;;;5002896;28;20503;-67
2023/08/08 15:26:56;;;;;;;10.35;2.17;;;;;;;;;;5005786;28;20104;-72
2023/08/08 15:30:36;;;;;;;14.73;2.38;;;;;;;;;;5004993;28;20884;-69
2023/08/08 15:34:17;;;;;;;11.60;2.28;;;;;;;;;;5002551;28;20085;-66
2023/08/08 15:38:00;;;;;;;8.27;2.45;;;;;;;;;;5000908;28;20049;-67
2023/08/08 15:41:40;;;;;;;12.27;2.40;;;;;;;;;;5004709;28;20049;-66
2023/08/08 15:45:20;;;;;;;9.63;2.70;;;;;;;;;;5010048;28;20049;-68
2023/08/08 15:49:01;;;;;;;8.65;2.20;;;;;;;;;;5004159;28;20506;-69
2023/08/08 15:52:41;;;;;;;10.82;2.47;;;;;;;;;;5005450;28;20078;-66
2023/08/08 15:56:21;;;;;;;13.18;2.40;;;;;;;;;;5005457;28;20567;-68
2023/08/08 16:00:03;;;;;;;9.25;2.15;;;;;;;;;;5006187;28;20049;-69
2023/08/08 16:03:43;;;;;;;16.30;2.72;;;;;;;;;;5003039;28;20052;-73
2023/08/08 16:07:23;;;;;;;12.65;2.90;;;;;;;;;;5004609;28;20049;-68
2023/08/08 16:11:04;;;;;;;10.55;2.42;;;;;;;;;;5004329;28;20041;-67
2023/08/08 16:14:44;;;;;;;8.45;2.17;;;;;;;;;;5003896;28;20195;-67
2023/08/08 16:18:24;;;;;;;9.80;2.22;;;;;;;;;;5002546;28;20394;-70
2023/08/08 16:22:05;;;;;;;10.23;2.72;;;;;;;;;;5003300;28;20450;-67
2023/08/08 16:25:45;;;;;;;8.20;2.30;;;;;;;;;;5003005;28;20388;-66
2023/08/08 16:29:26;;;;;;;8.23;2.10;;;;;;;;;;5003310;28;20064;-68
2023/08/08 16:33:06;;;;;;;9.40;2.28;;;;;;;;;;5001186;28;20049;-67
2023/08/08 16:36:47;;;;;;;10.07;2.40;;;;;;;;;;5003978;28;20145;-67
2023/08/08 16:40:27;;;;;;;9.07;2.30;;;;;;;;;;5003772;28;20045;-68
2023/08/08 16:44:08;;;;;;;12.90;2.25;;;;;;;;;;5008387;28;20154;-66
2023/08/08 16:47:48;;;;;;;7.10;2.58;;;;;;;;;;5006924;28;20087;-66
2023/08/08 16:51:28;;;;;;;11.60;2.60;;;;;;;;;;5004204;28;20613;-67
2023/08/08 16:55:10;;;;;;;9.50;2.45;;;;;;;;;;5002830;28;20119;-67
2023/08/08 16:58:50;;;;;;;7.65;2.50;;;;;;;;;;5001529;28;20076;-66
2023/08/08 17:02:30;;;;;;;11.30;2.42;;;;;;;;;;5002341;28;20053;-66
2023/08/08 17:06:10;;;;;;;8.02;2.13;;;;;;;;;;5001501;28;20043;-72